Time;durP1;ratioP1;P1;durP2;ratioP2;P2;SDS_P1;SDS_P2;PMS_P1;PMS_P2;Temp;Humidity;BMP_temperature;BMP_pressure;BME280_temperature;BME280_humidity;BME280_pressure;Samples;Min_cycle;Max_cycle;Signal;HPM_P1;HPM_P2
2022/07/23 00:02:06;;;;;;;3.17;2.27;;;;;;;20.36;58.55;100361.00;1745021;81;21486;-61
2022/07/23 00:04:36;;;;;;;4.42;2.47;;;;;;;20.33;58.58;100358.74;1745003;81;21075;-60
2022/07/23 00:07:05;;;;;;;4.25;2.10;;;;;;;20.27;58.69;100359.80;1745070;82;21055;-61
2022/07/23 00:09:35;;;;;;;2.55;2.10;;;;;;;20.23;58.87;100356.70;1772850;80;21081;-61
2022/07/23 00:12:08;;;;;;;4.37;2.22;;;;;;;20.24;58.96;100363.10;1775695;81;21086;-60
2022/07/23 00:14:38;;;;;;;2.40;2.17;;;;;;;20.24;59.11;100359.77;1755693;80;21003;-61
2022/07/23 00:17:09;;;;;;;2.37;2.15;;;;;;;20.21;59.29;100360.30;1752119;82;21016;-60
2022/07/23 00:19:39;;;;;;;2.95;2.20;;;;;;;20.14;59.46;100363.80;1761217;80;21012;-62
2022/07/23 00:22:10;;;;;;;2.70;2.15;;;;;;;20.10;59.51;100361.81;1780782;80;21395;-60
2022/07/23 00:24:40;;;;;;;3.35;2.42;;;;;;;20.08;59.59;100369.57;1781314;80;21071;-61
2022/07/23 00:27:10;;;;;;;2.77;2.40;;;;;;;20.06;59.62;100369.84;1779580;80;21011;-60
2022/07/23 00:29:40;;;;;;;3.40;2.52;;;;;;;20.06;59.67;100366.22;1756946;81;21048;-60
2022/07/23 00:32:09;;;;;;;4.05;2.35;;;;;;;20.06;59.76;100362.05;1749779;80;21023;-61
2022/07/23 00:34:39;;;;;;;3.83;2.20;;;;;;;20.05;59.88;100358.97;1749973;81;21427;-61
2022/07/23 00:37:09;;;;;;;3.70;2.25;;;;;;;20.02;60.01;100367.84;1749640;82;21088;-61
2022/07/23 00:39:39;;;;;;;3.08;2.10;;;;;;;19.95;60.25;100370.27;1749851;82;21058;-61
2022/07/23 00:42:11;;;;;;;2.70;2.10;;;;;;;19.90;60.47;100366.03;1749605;82;21088;-61
2022/07/23 00:44:43;;;;;;;3.30;2.12;;;;;;;19.86;60.64;100369.05;1749917;82;21040;-61
2022/07/23 00:47:16;;;;;;;5.22;2.58;;;;;;;19.85;60.73;100370.15;1749680;80;21533;-60
2022/07/23 00:49:45;;;;;;;2.35;2.15;;;;;;;19.88;60.80;100370.18;1751800;81;21027;-61
2022/07/23 00:52:17;;;;;;;3.08;2.37;;;;;;;19.89;60.87;100372.70;1767935;80;21459;-60
2022/07/23 00:54:46;;;;;;;3.17;2.40;;;;;;;19.89;60.93;100373.25;1758693;80;21039;-60
2022/07/23 00:57:17;;;;;;;2.60;2.40;;;;;;;19.87;60.98;100374.06;1749827;82;21051;-61
2022/07/23 00:59:46;;;;;;;3.60;2.22;;;;;;;19.83;61.21;100380.69;1749620;80;21461;-61
2022/07/23 01:02:17;;;;;;;3.60;2.20;;;;;;;19.79;61.45;100382.31;1749936;81;21027;-61
2022/07/23 01:04:46;;;;;;;4.42;2.15;;;;;;;19.78;61.59;100383.41;1749764;82;21007;-61
2022/07/23 01:07:17;;;;;;;5.83;2.40;;;;;;;19.77;61.63;100384.51;1749639;82;21070;-61
2022/07/23 01:09:48;;;;;;;2.35;2.15;;;;;;;19.75;61.73;100379.75;1778347;80;21043;-61
2022/07/23 01:12:17;;;;;;;2.87;2.37;;;;;;;19.70;61.87;100382.47;1751520;80;21027;-60
2022/07/23 01:14:56;;;;;;;2.42;2.22;;;;;;;19.69;62.03;100389.68;1775118;81;21574;-61
2022/07/23 01:17:27;;;;;;;6.33;2.77;;;;;;;19.68;62.13;100387.45;1777046;79;21052;-60
2022/07/23 01:19:57;;;;;;;4.05;2.15;;;;;;;19.68;62.17;100386.61;1809227;79;21078;-60
2022/07/23 01:22:30;;;;;;;2.92;2.40;;;;;;;19.66;62.36;100387.41;1813025;79;21023;-61
2022/07/23 01:24:59;;;;;;;2.58;2.37;;;;;;;19.61;62.56;100393.75;1809447;79;20983;-60
2022/07/23 01:27:31;;;;;;;3.02;2.25;;;;;;;19.59;62.68;100392.62;1809177;79;21059;-60
2022/07/23 01:30:05;;;;;;;5.28;2.45;;;;;;;19.59;62.74;100394.01;1797804;79;20972;-61
2022/07/23 01:32:37;;;;;;;3.62;2.50;;;;;;;19.59;62.85;100396.78;1795383;79;21078;-61
2022/07/23 01:35:08;;;;;;;4.37;2.62;;;;;;;19.59;62.91;100395.95;1809226;79;20979;-60
2022/07/23 01:37:38;;;;;;;2.60;2.40;;;;;;;19.60;62.99;100401.25;1809255;79;21178;-60
2022/07/23 01:40:09;;;;;;;4.55;2.87;;;;;;;19.61;63.08;100397.92;1809088;79;21012;-60
2022/07/23 01:42:39;;;;;;;2.90;2.60;;;;;;;19.59;63.23;100397.33;1789726;79;20979;-60
2022/07/23 01:45:10;;;;;;;3.60;2.25;;;;;;;19.59;63.28;100398.17;1742695;82;21040;-61
2022/07/23 01:47:44;;;;;;;3.60;2.80;;;;;;;19.61;63.32;100402.09;1742690;81;21420;-61
2022/07/23 01:50:14;;;;;;;3.02;2.62;;;;;;;19.61;63.29;100401.54;1740942;82;21055;-61
2022/07/23 01:52:46;;;;;;;2.58;2.37;;;;;;;19.58;63.35;100401.21;1755363;81;21065;-61
2022/07/23 01:55:16;;;;;;;4.37;2.42;;;;;;;19.57;63.46;100402.31;1760567;81;21045;-60
2022/07/23 01:57:49;;;;;;;4.35;2.85;;;;;;;19.55;63.55;100401.73;1753298;81;21029;-61
2022/07/23 02:00:21;;;;;;;3.12;2.52;;;;;;;19.55;63.79;100402.56;1746059;80;21049;-61
2022/07/23 02:02:54;;;;;;;3.47;2.80;;;;;;;19.54;63.93;100400.05;1733526;83;20998;-61
2022/07/23 02:05:26;;;;;;;7.80;2.77;;;;;;;19.55;64.09;100405.89;1741393;82;21522;-61
2022/07/23 02:07:55;;;;;;;4.22;2.65;;;;;;;19.52;64.22;100409.16;1740035;82;21468;-60
2022/07/23 02:10:26;;;;;;;5.00;2.60;;;;;;;19.48;64.39;100401.00;1743964;81;21036;-61
2022/07/23 02:12:57;;;;;;;2.87;2.60;;;;;;;19.45;64.53;100404.30;1739899;82;21831;-60
2022/07/23 02:15:28;;;;;;;6.75;2.62;;;;;;;19.44;64.67;100413.19;1716255;82;21460;-60
2022/07/23 02:17:59;;;;;;;3.10;2.80;;;;;;;19.43;64.81;100405.95;1738879;82;21013;-61
2022/07/23 02:20:30;;;;;;;5.90;2.80;;;;;;;19.45;64.86;100409.86;1738836;81;21021;-61
2022/07/23 02:23:00;;;;;;;4.28;2.80;;;;;;;19.44;64.96;100409.02;1782009;80;20979;-61
2022/07/23 02:25:31;;;;;;;3.33;2.72;;;;;;;19.46;65.07;100403.20;1779110;81;21114;-61
2022/07/23 02:28:05;;;;;;;5.28;3.00;;;;;;;19.48;65.15;100402.39;1785351;79;21517;-61
2022/07/23 02:30:37;;;;;;;4.40;2.80;;;;;;;19.46;65.23;100404.04;1788566;79;21054;-60
2022/07/23 02:33:08;;;;;;;4.60;2.80;;;;;;;19.44;65.37;100404.84;1782182;79;21043;-61
2022/07/23 02:35:39;;;;;;;4.30;3.22;;;;;;;19.43;65.61;100406.49;1782195;79;21487;-63
2022/07/23 02:38:09;;;;;;;3.20;2.70;;;;;;;19.40;65.86;100404.23;1783688;79;21981;-60
2022/07/23 02:40:39;;;;;;;3.08;2.77;;;;;;;19.31;66.09;100406.05;1782097;80;21094;-59
2022/07/23 02:43:09;;;;;;;4.83;2.70;;;;;;;19.26;66.38;100410.14;1780919;80;21019;-60
2022/07/23 02:45:41;;;;;;;5.50;2.80;;;;;;;19.25;66.79;100411.78;1780376;80;21095;-62
2022/07/23 02:48:13;;;;;;;3.95;3.10;;;;;;;19.26;67.07;100414.86;1780686;79;21415;-61
2022/07/23 02:50:46;;;;;;;7.03;3.05;;;;;;;19.27;67.27;100407.66;1782045;79;21088;-60
2022/07/23 02:53:18;;;;;;;7.65;3.10;;;;;;;19.30;67.48;100404.37;1782310;79;21037;-61
2022/07/23 02:55:50;;;;;;;4.00;3.20;;;;;;;19.34;67.56;100411.64;1782207;79;21013;-61
2022/07/23 02:58:19;;;;;;;6.95;3.00;;;;;;;19.39;67.63;100414.50;1782226;79;20986;-61
2022/07/23 03:00:50;;;;;;;5.20;3.10;;;;;;;19.44;67.82;100416.52;1796358;79;21078;-62
2022/07/23 03:03:20;;;;;;;9.18;5.12;;;;;;;19.49;67.82;100416.58;1813814;79;21027;-61
2022/07/23 03:05:49;;;;;;;6.12;3.35;;;;;;;19.52;68.02;100416.10;1800716;79;21023;-61
2022/07/23 03:08:21;;;;;;;3.67;3.20;;;;;;;19.51;68.35;100417.20;1780952;79;21577;-61
2022/07/23 03:10:54;;;;;;;3.30;3.00;;;;;;;19.50;68.53;100415.48;1783938;79;21505;-61
2022/07/23 03:13:25;;;;;;;4.53;3.20;;;;;;;19.51;68.74;100416.66;1782437;80;21059;-61
2022/07/23 03:15:56;;;;;;;4.08;3.12;;;;;;;19.52;68.91;100414.20;1787413;79;21027;-61
2022/07/23 03:18:26;;;;;;;6.60;3.50;;;;;;;19.55;69.15;100421.19;1812146;79;21416;-61
2022/07/23 03:20:56;;;;;;;5.45;3.20;;;;;;;19.55;69.39;100420.63;1812053;79;21446;-60
2022/07/23 03:23:26;;;;;;;4.15;3.20;;;;;;;19.57;69.57;100426.78;1811960;79;21043;-59
2022/07/23 03:25:56;;;;;;;7.20;3.92;;;;;;;19.61;69.71;100434.05;1811937;79;21425;-62
2022/07/23 03:28:26;;;;;;;5.95;3.40;;;;;;;19.62;69.77;100442.69;1799049;79;21030;-60
2022/07/23 03:30:57;;;;;;;4.25;3.20;;;;;;;19.65;69.85;100438.00;1812286;79;21074;-61
2022/07/23 03:33:28;;;;;;;3.85;3.12;;;;;;;19.72;69.83;100437.81;1812193;79;21023;-62
2022/07/23 03:36:00;;;;;;;6.72;3.80;;;;;;;19.77;69.86;100446.23;1811927;79;21062;-62
2022/07/23 03:38:34;;;;;;;3.90;3.20;;;;;;;19.79;69.84;100439.86;1811930;79;21455;-61
2022/07/23 03:41:05;;;;;;;3.40;3.10;;;;;;;19.82;69.89;100443.52;1812081;79;21070;-60
2022/07/23 03:43:34;;;;;;;7.25;3.60;;;;;;;19.84;69.96;100442.16;1809417;79;21036;-60
2022/07/23 03:46:04;;;;;;;3.72;3.40;;;;;;;19.86;69.91;100438.57;1784673;79;21033;-61
2022/07/23 03:48:34;;;;;;;3.90;3.37;;;;;;;19.90;69.97;100437.50;1784701;80;21069;-61
2022/07/23 03:51:06;;;;;;;4.03;3.15;;;;;;;19.93;70.05;100444.78;1798102;79;21086;-60
2022/07/23 03:53:36;;;;;;;9.45;3.30;;;;;;;19.95;70.18;100441.73;1816813;79;20979;-61
2022/07/23 03:56:06;;;;;;;3.75;2.85;;;;;;;19.97;70.34;100445.11;1816696;78;21018;-60
2022/07/23 03:58:35;;;;;;;4.30;3.00;;;;;;;20.00;70.46;100437.63;1796678;79;21425;-60
2022/07/23 04:01:05;;;;;;;3.87;2.58;;;;;;;20.04;70.38;100440.73;1784595;79;21057;-61
2022/07/23 04:03:36;;;;;;;4.20;2.50;;;;;;;20.11;69.98;100441.38;1784787;79;20978;-61
2022/07/23 04:06:06;;;;;;;7.20;3.40;;;;;;;20.19;69.46;100439.56;1785076;79;20975;-62
2022/07/23 04:08:38;;;;;;;3.40;2.90;;;;;;;20.27;69.06;100446.05;1784762;80;21078;-62
2022/07/23 04:11:07;;;;;;;3.25;2.80;;;;;;;20.33;68.75;100446.41;1784583;80;21050;-60
2022/07/23 04:13:39;;;;;;;4.85;2.75;;;;;;;20.37;68.36;100443.94;1785948;80;21117;-60
2022/07/23 04:16:09;;;;;;;5.17;2.80;;;;;;;20.42;67.86;100446.27;1801159;78;21038;-62
2022/07/23 04:18:39;;;;;;;4.45;2.50;;;;;;;20.46;67.53;100443.24;1816820;79;21015;-61
2022/07/23 04:21:14;;;;;;;3.50;2.45;;;;;;;20.52;67.04;100442.20;1801171;79;21007;-61
2022/07/23 04:23:43;;;;;;;3.12;2.47;;;;;;;20.60;66.39;100440.04;1785173;79;20983;-60
2022/07/23 04:26:14;;;;;;;4.92;2.47;;;;;;;20.66;66.16;100437.59;1816572;79;21082;-60
2022/07/23 04:28:47;;;;;;;5.40;2.50;;;;;;;20.69;65.96;100439.85;1812862;79;21559;-61
2022/07/23 04:31:16;;;;;;;3.10;2.80;;;;;;;20.72;65.63;100435.15;1784552;80;21046;-62
2022/07/23 04:33:46;;;;;;;4.15;2.60;;;;;;;20.77;65.33;100436.59;1784458;80;21046;-60
2022/07/23 04:36:17;;;;;;;3.87;2.47;;;;;;;20.82;65.14;100437.50;1784463;80;21599;-61
2022/07/23 04:38:48;;;;;;;6.62;3.10;;;;;;;20.87;64.73;100432.53;1784857;80;21002;-60
2022/07/23 04:41:21;;;;;;;4.42;2.52;;;;;;;20.92;64.54;100433.97;1784850;80;21034;-62
2022/07/23 04:43:52;;;;;;;5.20;2.60;;;;;;;20.96;64.17;100433.73;1797852;79;21003;-61
2022/07/23 04:46:21;;;;;;;5.75;2.62;;;;;;;20.99;63.84;100433.20;1816814;79;21004;-61
2022/07/23 04:48:52;;;;;;;3.58;2.17;;;;;;;21.06;63.73;100442.17;1816602;79;21003;-61
2022/07/23 04:51:23;;;;;;;5.12;2.17;;;;;;;21.09;63.43;100436.06;1816657;79;21062;-61
2022/07/23 04:53:53;;;;;;;5.67;2.90;;;;;;;21.15;63.31;100438.34;1792812;79;21127;-61
2022/07/23 04:56:23;;;;;;;5.80;2.20;;;;;;;21.20;63.10;100446.19;1784539;80;21041;-62
2022/07/23 04:58:53;;;;;;;4.45;2.30;;;;;;;21.25;62.99;100450.99;1784743;80;21014;-61
2022/07/23 05:01:24;;;;;;;4.28;2.67;;;;;;;21.30;62.72;100445.45;1784503;80;21014;-62
2022/07/23 05:03:54;;;;;;;4.08;2.35;;;;;;;21.37;62.60;100452.19;1785065;79;21419;-62
2022/07/23 05:06:25;;;;;;;4.62;2.35;;;;;;;21.49;62.57;100450.08;1784480;80;20999;-61
2022/07/23 05:08:55;;;;;;;5.00;3.17;;;;;;;21.68;62.22;100448.52;1786324;79;21042;-62
2022/07/23 05:11:25;;;;;;;3.45;2.30;;;;;;;21.91;61.38;100451.99;1814639;79;20971;-62
2022/07/23 05:13:56;;;;;;;5.33;2.83;;;;;;;22.17;60.78;100451.61;1811570;79;21050;-60
2022/07/23 05:16:29;;;;;;;4.65;2.10;;;;;;;22.51;59.71;100456.19;1784240;80;21069;-61
2022/07/23 05:19:01;;;;;;;3.92;2.37;;;;;;;22.80;58.44;100455.16;1770974;81;21053;-61
2022/07/23 05:21:34;;;;;;;8.98;7.00;;;;;;;23.06;57.64;100449.34;1770899;80;21048;-61
2022/07/23 05:24:05;;;;;;;3.80;3.02;;;;;;;23.37;56.63;100450.72;1749437;81;21045;-62
2022/07/23 05:26:35;;;;;;;3.17;2.37;;;;;;;23.69;55.91;100455.48;1770519;81;20974;-61
2022/07/23 05:29:05;;;;;;;2.47;2.27;;;;;;;24.08;54.44;100453.99;1770675;81;21045;-61
2022/07/23 05:31:38;;;;;;;2.35;2.15;;;;;;;24.28;52.87;100456.17;1708349;84;21043;-62
2022/07/23 05:34:09;;;;;;;4.45;2.87;;;;;;;24.43;52.13;100453.02;1708605;83;21063;-62
2022/07/23 05:36:43;;;;;;;4.78;2.22;;;;;;;24.65;51.72;100451.48;1703686;82;21048;-63
2022/07/23 05:39:14;;;;;;;2.72;2.10;;;;;;;24.88;50.89;100451.36;1702157;84;21138;-62
2022/07/23 05:41:44;;;;;;;3.98;2.40;;;;;;;25.13;50.17;100459.33;1702242;84;21120;-62
2022/07/23 05:44:14;;;;;;;2.50;2.25;;;;;;;25.37;49.66;100463.07;1705461;82;21096;-61
2022/07/23 05:46:45;;;;;;;2.35;2.15;;;;;;;25.58;49.00;100458.94;1668641;85;21057;-62
2022/07/23 05:49:17;;;;;;;4.17;2.20;;;;;;;25.72;48.75;100459.67;1714992;81;21088;-61
2022/07/23 05:51:59;;;;;;;5.50;2.20;;;;;;;25.83;48.26;100460.66;1737034;81;21055;-61
2022/07/23 05:54:31;;;;;;;6.45;2.40;;;;;;;25.94;48.09;100454.93;1675626;85;21501;-61
2022/07/23 05:57:02;;;;;;;2.90;2.27;;;;;;;26.21;47.26;100456.02;1684091;85;21071;-62
2022/07/23 05:59:33;;;;;;;2.30;2.10;;;;;;;26.40;46.55;100460.87;1684421;85;21043;-62
2022/07/23 06:02:02;;;;;;;5.20;2.22;;;;;;;26.48;45.64;100458.22;1684057;84;21067;-62
2022/07/23 06:04:32;;;;;;;5.25;2.17;;;;;;;26.51;46.01;100456.21;1684165;85;21039;-63
2022/07/23 06:07:10;;;;;;;4.45;2.25;;;;;;;26.74;45.32;100455.91;1682587;85;21030;-63
2022/07/23 06:09:40;;;;;;;2.30;2.00;;;;;;;26.93;44.80;100459.28;1737028;82;21031;-62
2022/07/23 06:12:12;;;;;;;2.35;2.00;;;;;;;27.06;44.38;100457.13;1731085;82;21452;-61
2022/07/23 06:14:45;;;;;;;2.80;2.10;;;;;;;27.13;44.04;100447.73;1737761;82;21498;-61
2022/07/23 06:17:14;;;;;;;3.47;2.05;;;;;;;27.39;43.20;100457.44;1750208;81;21466;-61
2022/07/23 06:19:45;;;;;;;3.55;2.20;;;;;;;27.56;42.35;100462.48;1756845;82;20987;-62
2022/07/23 06:22:15;;;;;;;3.27;2.10;;;;;;;27.48;42.90;100456.98;1773856;80;21083;-61
2022/07/23 06:24:45;;;;;;;4.17;2.17;;;;;;;27.60;42.30;100459.88;1787804;80;21007;-61
2022/07/23 06:27:16;;;;;;;2.65;2.00;;;;;;;27.88;42.05;100453.16;1779511;80;21031;-62
2022/07/23 06:29:48;;;;;;;3.92;2.40;;;;;;;28.10;41.39;100453.30;1756106;82;21066;-60
2022/07/23 06:32:18;;;;;;;4.55;2.40;;;;;;;28.32;40.81;100452.59;1756689;82;21038;-62
2022/07/23 06:34:48;;;;;;;3.95;2.25;;;;;;;28.32;40.81;100452.59;1751846;82;21024;-61
2022/07/23 06:37:17;;;;;;;5.53;2.45;;;;;;;28.42;40.80;100467.03;1757270;80;21480;-63
2022/07/23 06:39:49;;;;;;;4.53;2.12;;;;;;;28.63;40.06;100458.41;1750442;82;21435;-61
2022/07/23 06:42:20;;;;;;;5.55;2.08;;;;;;;28.88;39.43;100466.05;1748775;82;21058;-61
2022/07/23 06:44:52;;;;;;;3.47;1.87;;;;;;;28.95;39.49;100462.21;1725259;82;21062;-62
2022/07/23 06:47:22;;;;;;;5.78;2.33;;;;;;;29.06;39.37;100466.45;1748677;82;21069;-61
2022/07/23 06:49:53;;;;;;;3.10;1.70;;;;;;;29.18;38.81;100471.52;1748938;80;21147;-62
2022/07/23 06:52:25;;;;;;;4.35;2.00;;;;;;;29.28;38.12;100469.31;1748967;82;21418;-62
2022/07/23 06:54:55;;;;;;;3.70;1.82;;;;;;;29.43;38.28;100470.94;1772500;80;21039;-61
2022/07/23 06:57:25;;;;;;;3.08;1.80;;;;;;;29.73;37.64;100471.28;1782553;80;21014;-62
2022/07/23 06:59:56;;;;;;;7.47;2.17;;;;;;;29.80;37.62;100463.17;1782582;80;21047;-62
2022/07/23 07:02:28;;;;;;;5.22;2.12;;;;;;;29.80;37.33;100474.47;1782518;80;21030;-62
2022/07/23 07:04:59;;;;;;;6.12;1.98;;;;;;;29.64;37.41;100469.23;1781313;80;21342;-61
2022/07/23 07:07:32;;;;;;;6.28;2.30;;;;;;;29.66;37.60;100474.56;1779309;80;21019;-61
2022/07/23 07:10:04;;;;;;;4.45;1.98;;;;;;;29.75;37.44;100471.78;1715530;83;21026;-60
2022/07/23 07:12:35;;;;;;;2.87;1.90;;;;;;;29.87;37.01;100468.61;1710444;83;21055;-61
2022/07/23 07:15:07;;;;;;;2.27;1.80;;;;;;;30.18;36.52;100482.77;1690772;84;21665;-62
2022/07/23 07:17:39;;;;;;;5.95;1.85;;;;;;;30.48;36.24;100468.30;1683795;84;21071;-62
2022/07/23 07:20:10;;;;;;;2.17;1.70;;;;;;;30.69;34.84;100468.55;1681778;85;21050;-62
2022/07/23 07:22:40;;;;;;;3.75;1.92;;;;;;;30.68;35.23;100458.98;1679793;85;21167;-61
2022/07/23 07:25:10;;;;;;;2.75;1.85;;;;;;;30.85;35.27;100461.83;1681864;85;21007;-62
2022/07/23 07:27:41;;;;;;;10.40;2.27;;;;;;;30.88;35.09;100463.41;1708267;80;21459;-62
2022/07/23 07:30:11;;;;;;;6.12;1.98;;;;;;;30.88;34.51;100462.58;1768335;80;21330;-62
2022/07/23 07:32:41;;;;;;;3.17;1.80;;;;;;;30.70;34.66;100458.91;1746974;81;21063;-62
2022/07/23 07:35:15;;;;;;;3.92;1.80;;;;;;;30.60;35.30;100460.64;1746575;82;21537;-62
2022/07/23 07:37:47;;;;;;;3.17;2.00;;;;;;;30.68;35.25;100458.98;1712895;83;21047;-61
2022/07/23 07:40:16;;;;;;;5.20;1.80;;;;;;;30.74;35.43;100461.91;1712059;83;21079;-61
2022/07/23 07:42:51;;;;;;;2.58;1.77;;;;;;;30.75;35.46;100452.25;1712209;84;21027;-61
2022/07/23 07:45:20;;;;;;;4.72;1.85;;;;;;;30.87;35.35;100461.75;1712381;84;21071;-61
2022/07/23 07:47:50;;;;;;;4.37;1.80;;;;;;;31.02;34.91;100452.51;1705620;84;21008;-63
2022/07/23 07:50:22;;;;;;;3.00;1.62;;;;;;;31.11;34.50;100454.75;1709185;83;21027;-62
2022/07/23 07:52:52;;;;;;;8.08;2.47;;;;;;;31.17;34.30;100454.28;1714190;83;21126;-61
2022/07/23 07:55:22;;;;;;;5.53;1.90;;;;;;;31.05;34.34;100457.50;1705482;83;21046;-63
2022/07/23 07:57:52;;;;;;;3.67;2.08;;;;;;;31.01;35.14;100453.67;1698198;83;21482;-64
2022/07/23 08:00:22;;;;;;;3.37;1.62;;;;;;;31.09;34.90;100458.50;1694735;85;21043;-66
2022/07/23 08:02:53;;;;;;;2.72;1.60;;;;;;;31.15;34.88;100455.20;1694590;85;21092;-63
2022/07/23 08:05:26;;;;;;;3.33;2.00;;;;;;;31.19;34.49;100456.19;1694635;85;21080;-64
2022/07/23 08:08:18;;;;;;;5.45;2.12;;;;;;;31.24;35.02;100460.05;1694716;85;21084;-64
2022/07/23 08:10:49;;;;;;;2.75;1.70;;;;;;;31.34;34.49;100459.70;1643499;86;21088;-64
2022/07/23 08:13:19;;;;;;;3.25;1.90;;;;;;;31.53;34.07;100463.83;1636883;86;21098;-62
2022/07/23 08:15:50;;;;;;;3.20;1.47;;;;;;;31.51;34.10;100463.91;1635476;86;21080;-63
2022/07/23 08:18:20;;;;;;;3.10;1.70;;;;;;;31.65;33.50;100465.13;1633082;87;21060;-63
2022/07/23 08:20:51;;;;;;;5.42;2.08;;;;;;;31.68;33.47;100465.28;1627727;86;21088;-62
2022/07/23 08:23:21;;;;;;;3.95;1.57;;;;;;;31.75;33.64;100459.96;1679344;84;21091;-63
2022/07/23 08:25:52;;;;;;;2.85;1.40;;;;;;;31.88;32.78;100460.12;1680565;84;21087;-63
2022/07/23 08:28:22;;;;;;;1.75;1.30;;;;;;;31.84;32.72;100463.59;1684617;83;21647;-64
2022/07/23 08:30:53;;;;;;;1.90;1.47;;;;;;;31.87;31.04;100459.87;1658672;86;21086;-65
2022/07/23 08:33:23;;;;;;;4.70;1.72;;;;;;;31.72;31.80;100460.64;1659595;86;21083;-64
2022/07/23 08:35:56;;;;;;;2.02;1.40;;;;;;;31.78;31.97;100463.53;1658664;86;21511;-67
2022/07/23 08:38:26;;;;;;;3.95;1.50;;;;;;;31.83;32.50;100460.52;1659504;86;21271;-65
2022/07/23 08:40:59;;;;;;;3.35;1.60;;;;;;;31.91;32.51;100456.60;1659601;85;21047;-65
2022/07/23 08:43:31;;;;;;;2.95;1.70;;;;;;;31.93;32.25;100450.84;1678913;84;21079;-65
2022/07/23 08:46:01;;;;;;;5.90;1.75;;;;;;;31.98;32.01;100443.56;1660088;84;21078;-66
2022/07/23 08:48:33;;;;;;;2.67;1.92;;;;;;;31.99;31.94;100450.06;1671712;83;21070;-66
2022/07/23 08:51:04;;;;;;;4.97;1.70;;;;;;;31.94;32.18;100438.33;1684803;84;21086;-65
2022/07/23 08:53:38;;;;;;;2.02;1.50;;;;;;;31.98;31.71;100447.81;1676117;84;21131;-65
2022/07/23 08:56:09;;;;;;;2.25;1.40;;;;;;;32.07;31.04;100443.52;1668780;84;21090;-65
2022/07/23 08:58:40;;;;;;;3.65;1.70;;;;;;;32.09;30.79;100446.84;1662088;84;21268;-67
2022/07/23 09:01:10;;;;;;;4.53;1.60;;;;;;;32.02;30.66;100432.38;1670221;84;21044;-67
2022/07/23 09:03:44;;;;;;;2.55;1.35;;;;;;;31.86;30.79;100444.84;1685209;85;21039;-66
2022/07/23 09:06:13;;;;;;;2.20;1.50;;;;;;;31.93;30.93;100445.76;1686311;83;21113;-67
2022/07/23 09:08:44;;;;;;;3.17;1.62;;;;;;;31.95;30.99;100444.83;1702180;80;21093;-64
2022/07/23 09:11:19;;;;;;;3.87;1.65;;;;;;;31.84;31.05;100438.09;1722976;82;21034;-65
2022/07/23 09:13:54;;;;;;;4.22;1.98;;;;;;;31.69;31.22;100442.03;1745186;82;21091;-65
2022/07/23 09:16:29;;;;;;;3.22;1.77;;;;;;;31.55;31.74;100437.99;1744784;82;21075;-68
2022/07/23 09:19:02;;;;;;;3.05;1.62;;;;;;;31.52;31.49;100428.75;1700196;84;21047;-67
2022/07/23 09:21:33;;;;;;;4.17;1.72;;;;;;;31.40;31.56;100422.95;1693468;84;21011;-65
2022/07/23 09:24:05;;;;;;;2.08;1.60;;;;;;;31.31;32.22;100433.47;1638754;86;21055;-67
2022/07/23 09:26:47;;;;;;;1.95;1.60;;;;;;;31.28;32.31;100429.89;1686771;84;21110;-68
2022/07/23 09:29:25;;;;;;;2.17;1.87;;;;;;;31.08;32.28;100424.28;1667474;84;21075;-66
2022/07/23 09:31:59;;;;;;;2.30;1.65;;;;;;;30.81;32.73;100421.22;1661614;85;21041;-67
2022/07/23 09:34:39;;;;;;;3.45;1.62;;;;;;;30.67;33.16;100417.72;1660222;84;21091;-68
2022/07/23 09:37:14;;;;;;;5.40;1.87;;;;;;;30.63;33.41;100426.03;1651832;85;21208;-66
2022/07/23 09:39:46;;;;;;;2.72;1.80;;;;;;;30.59;33.53;100420.80;1704394;83;21019;-68
2022/07/23 09:42:23;;;;;;;2.40;1.87;;;;;;;30.50;33.76;100418.47;1704641;83;20999;-68
2022/07/23 09:44:55;;;;;;;4.30;2.10;;;;;;;30.38;33.97;100412.63;1704468;83;21067;-68
2022/07/23 09:47:28;;;;;;;3.02;1.60;;;;;;;30.23;34.40;100419.59;1704535;83;21465;-64
2022/07/23 09:50:04;;;;;;;1.80;1.70;;;;;;;29.97;34.62;100421.73;1704515;84;21078;-68
2022/07/23 09:52:36;;;;;;;3.77;1.72;;;;;;;29.69;35.25;100420.25;1715880;82;21035;-67
2022/07/23 09:55:09;;;;;;;3.45;2.10;;;;;;;29.48;35.55;100416.32;1715270;82;21083;-65
2022/07/23 09:57:39;;;;;;;3.20;1.85;;;;;;;29.35;35.61;100415.22;1749154;82;21431;-68
2022/07/23 10:00:10;;;;;;;2.10;1.90;;;;;;;29.26;35.97;100414.30;1740288;82;21114;-69
2022/07/23 10:02:40;;;;;;;6.70;2.42;;;;;;;29.30;35.83;100410.55;1695580;84;21043;-65
2022/07/23 10:05:26;;;;;;;3.20;1.90;;;;;;;29.28;35.88;100403.55;1687485;83;21051;-64
2022/07/23 10:08:15;;;;;;;5.40;2.15;;;;;;;29.28;36.49;100405.80;1667958;85;21102;-65
2022/07/23 10:11:03;;;;;;;4.08;1.72;;;;;;;29.27;36.45;100404.71;1677267;83;21096;-65
2022/07/23 10:13:56;;;;;;;3.30;1.77;;;;;;;29.28;36.43;100406.37;1673070;86;21483;-65
2022/07/23 10:16:38;;;;;;;3.08;1.95;;;;;;;29.28;36.36;100404.39;1655982;85;21006;-66
2022/07/23 10:19:08;;;;;;;3.42;1.90;;;;;;;29.22;36.17;100396.34;1674365;86;21002;-66
2022/07/23 10:21:42;;;;;;;3.87;1.75;;;;;;;29.02;36.76;100395.72;1674343;86;21489;-66
2022/07/23 10:24:45;;;;;;;3.25;1.90;;;;;;;28.92;36.90;100399.37;1674223;85;21071;-65
2022/07/23 10:27:52;;;;;;;7.08;2.70;;;;;;;28.92;37.04;100396.55;1673898;86;21062;-66
2022/07/23 10:30:33;;;;;;;3.13;1.83;;;;;;;28.96;37.28;100393.34;1675544;84;21138;-65
2022/07/23 10:33:19;;;;;;;3.52;2.10;;;;;;;29.08;36.85;100401.23;1675386;85;21092;-66
2022/07/23 10:36:06;;;;;;;3.75;2.00;;;;;;;29.11;36.19;100394.95;1667228;85;21052;-65
2022/07/23 10:38:59;;;;;;;3.58;2.40;;;;;;;28.99;36.46;100390.72;1691504;84;21110;-66
2022/07/23 10:41:38;;;;;;;2.12;1.65;;;;;;;28.93;36.97;100396.81;1749984;81;21427;-66
2022/07/23 10:44:11;;;;;;;5.25;1.92;;;;;;;28.86;37.26;100392.20;1731294;81;21057;-66
2022/07/23 10:47:19;;;;;;;2.52;1.55;;;;;;;28.82;37.20;100386.91;1741196;81;21062;-64
2022/07/23 10:49:45;;;;;;;2.75;1.90;;;;;;;28.87;36.84;100386.23;1720717;83;21047;-66
2022/07/23 10:52:18;;;;;;;4.90;2.00;;;;;;;28.91;36.74;100385.02;1720843;83;21042;-64
2022/07/23 10:54:54;;;;;;;2.33;1.72;;;;;;;28.91;36.68;100387.26;1721916;83;21042;-67
2022/07/23 10:57:26;;;;;;;2.55;2.35;;;;;;;28.91;36.43;100374.56;1719390;82;21114;-67
2022/07/23 11:02:42;;;;;;;4.42;1.60;;;;;;;28.98;36.68;100377.77;1698063;84;21037;-66
2022/07/23 11:05:22;;;;;;;2.35;2.08;;;;;;;29.01;36.35;100375.71;1685186;85;21009;-66
2022/07/23 11:08:11;;;;;;;3.35;2.27;;;;;;;29.01;36.58;100373.47;1718429;83;21081;-65
2022/07/23 11:10:51;;;;;;;3.25;1.90;;;;;;;29.02;36.59;100372.31;1715763;83;21186;-66
2022/07/23 11:13:27;;;;;;;4.30;2.05;;;;;;;28.96;36.35;100379.24;1714136;84;21087;-67
2022/07/23 11:16:10;;;;;;;3.33;1.60;;;;;;;28.87;36.25;100381.17;1714192;84;21097;-66
2022/07/23 11:18:51;;;;;;;3.08;2.10;;;;;;;28.74;36.07;100372.99;1713938;84;21042;-66
2022/07/23 11:21:29;;;;;;;3.33;2.45;;;;;;;28.62;36.25;100373.56;1679560;85;21471;-65
2022/07/23 11:24:08;;;;;;;4.10;2.30;;;;;;;28.58;36.39;100364.04;1713922;84;21520;-69
2022/07/23 11:26:53;;;;;;;4.90;1.90;;;;;;;28.58;36.34;100368.27;1686975;84;21096;-74
2022/07/23 11:29:33;;;;;;;3.47;1.60;;;;;;;28.62;36.20;100368.50;1677905;85;21453;-72
2022/07/23 11:32:27;;;;;;;3.67;1.80;;;;;;;28.68;35.84;100366.64;1677701;85;21078;-69
2022/07/23 11:34:58;;;;;;;5.72;1.90;;;;;;;28.75;36.00;100365.37;1677449;84;21088;-70
2022/07/23 11:37:40;;;;;;;4.08;1.80;;;;;;;28.76;36.36;100371.27;1677623;85;21037;-70
2022/07/23 11:40:12;;;;;;;3.25;1.70;;;;;;;28.78;36.71;100366.13;1677447;85;21535;-68
2022/07/23 11:43:05;;;;;;;2.22;1.67;;;;;;;28.77;36.80;100361.65;1677760;85;21041;-67
2022/07/23 11:45:43;;;;;;;3.80;1.65;;;;;;;28.73;36.91;100355.81;1654278;85;21503;-69
2022/07/23 11:48:21;;;;;;;2.83;2.10;;;;;;;28.69;37.11;100350.56;1677715;85;21124;-69
2022/07/23 11:50:53;;;;;;;2.52;2.15;;;;;;;28.66;36.44;100352.03;1677701;85;21523;-69
2022/07/23 11:53:24;;;;;;;2.40;2.08;;;;;;;28.53;36.03;100348.66;1677529;85;21477;-69